Portada
METAR-TAF:

METAR-TAF

Aeropuertos :

Sedalia, Misuri, Estados Unidos

latitud: 38-42-44N, longitud: 093-10-28W, altitud: 277 m

Observación

El informe se hizo hace 13 minutos, a las 03:53 UTC
Viento 15 kt del norte
Temperatura 4°C
Humedad 93%
Presión 1009 hPa
Visibilidad: 9.7 km
Cielo cubierto a una altura de 700 ft
neblina

METAR: KDMO 250353Z AUTO 01015KT 6SM BR OVC007 04/03 A2979 RMK AO2 RAE04 CIG 005V010 SLP090 P0000 T00440033

Hora: 22:06 (04:06 UTC)


TAF: falta

Observaciones y pronósticos meteorológicos de más de 4000 aeropuertos (mensajes METAR y TAF).

Los puntos amarillos y rojos representan las estaciones disponibles.

Ponga el ratón en el punto deseado para ver el nombre de la estación.

Haga clic para ver las observaciones y los pronósticos meteorológicos.

Para cambiar el mapa : haga clic en los botones verdes con una cruz de color negro para hacer un zoom, en el botón verde con un guión para alejar o en las flechas verdes para mapas adyacentes.


METAR-TAF: